sensor_id;sensor_type;location;lat;lon;timestamp;P1;durP1;ratioP1;P2;durP2;ratioP2
12052;SDS011;6087;48.982;12.064;2023-05-08T00:00:29;6.68;;;6.07;;
12052;SDS011;6087;48.982;12.064;2023-05-08T00:02:56;6.68;;;6.07;;
12052;SDS011;6087;48.982;12.064;2023-05-08T00:05:23;7.53;;;6.75;;
12052;SDS011;6087;48.982;12.064;2023-05-08T00:07:51;6.70;;;6.10;;
12052;SDS011;6087;48.982;12.064;2023-05-08T00:10:25;7.13;;;6.50;;
12052;SDS011;6087;48.982;12.064;2023-05-08T00:12:52;7.10;;;6.40;;
12052;SDS011;6087;48.982;12.064;2023-05-08T00:15:19;7.25;;;6.55;;
12052;SDS011;6087;48.982;12.064;2023-05-08T00:17:46;7.72;;;6.70;;
12052;SDS011;6087;48.982;12.064;2023-05-08T00:20:13;8.82;;;7.82;;
12052;SDS011;6087;48.982;12.064;2023-05-08T00:22:40;7.97;;;7.10;;
12052;SDS011;6087;48.982;12.064;2023-05-08T00:25:08;6.85;;;6.25;;
12052;SDS011;6087;48.982;12.064;2023-05-08T00:27:35;7.88;;;6.57;;
12052;SDS011;6087;48.982;12.064;2023-05-08T00:30:02;7.30;;;6.60;;
12052;SDS011;6087;48.982;12.064;2023-05-08T00:32:30;7.10;;;6.40;;
12052;SDS011;6087;48.982;12.064;2023-05-08T00:34:57;7.78;;;7.07;;
12052;SDS011;6087;48.982;12.064;2023-05-08T00:37:23;8.32;;;6.72;;
12052;SDS011;6087;48.982;12.064;2023-05-08T00:39:50;7.72;;;7.03;;
12052;SDS011;6087;48.982;12.064;2023-05-08T00:42:19;9.25;;;6.65;;
12052;SDS011;6087;48.982;12.064;2023-05-08T00:44:45;7.15;;;6.45;;
12052;SDS011;6087;48.982;12.064;2023-05-08T00:47:12;7.18;;;6.47;;
12052;SDS011;6087;48.982;12.064;2023-05-08T00:49:40;8.40;;;7.60;;
12052;SDS011;6087;48.982;12.064;2023-05-08T00:52:07;7.88;;;7.10;;
12052;SDS011;6087;48.982;12.064;2023-05-08T00:54:35;7.57;;;6.53;;
12052;SDS011;6087;48.982;12.064;2023-05-08T00:57:04;7.38;;;6.68;;
12052;SDS011;6087;48.982;12.064;2023-05-08T00:59:34;7.63;;;6.78;;
12052;SDS011;6087;48.982;12.064;2023-05-08T01:02:02;7.25;;;6.55;;
12052;SDS011;6087;48.982;12.064;2023-05-08T01:04:30;7.80;;;7.00;;
12052;SDS011;6087;48.982;12.064;2023-05-08T01:06:58;8.15;;;7.28;;
12052;SDS011;6087;48.982;12.064;2023-05-08T01:09:26;9.60;;;7.38;;
12052;SDS011;6087;48.982;12.064;2023-05-08T01:11:54;7.50;;;6.85;;
12052;SDS011;6087;48.982;12.064;2023-05-08T01:14:28;7.53;;;6.70;;
12052;SDS011;6087;48.982;12.064;2023-05-08T01:17:07;7.80;;;6.90;;
12052;SDS011;6087;48.982;12.064;2023-05-08T01:19:51;7.95;;;7.15;;
12052;SDS011;6087;48.982;12.064;2023-05-08T01:22:32;7.65;;;6.88;;
12052;SDS011;6087;48.982;12.064;2023-05-08T01:25:30;7.88;;;7.07;;
12052;SDS011;6087;48.982;12.064;2023-05-08T01:28:37;7.85;;;7.15;;
12052;SDS011;6087;48.982;12.064;2023-05-08T01:31:41;7.72;;;6.78;;
12052;SDS011;6087;48.982;12.064;2023-05-08T01:34:19;7.90;;;7.20;;
12052;SDS011;6087;48.982;12.064;2023-05-08T01:36:49;7.93;;;7.22;;
12052;SDS011;6087;48.982;12.064;2023-05-08T01:39:20;7.22;;;6.57;;
12052;SDS011;6087;48.982;12.064;2023-05-08T01:42:10;8.13;;;7.32;;
12052;SDS011;6087;48.982;12.064;2023-05-08T01:44:44;9.20;;;8.27;;
12052;SDS011;6087;48.982;12.064;2023-05-08T01:47:16;8.05;;;6.88;;
12052;SDS011;6087;48.982;12.064;2023-05-08T01:49:54;7.43;;;6.63;;
12052;SDS011;6087;48.982;12.064;2023-05-08T01:52:27;8.63;;;7.28;;
12052;SDS011;6087;48.982;12.064;2023-05-08T01:54:58;7.32;;;6.50;;
12052;SDS011;6087;48.982;12.064;2023-05-08T01:57:29;8.30;;;7.47;;
12052;SDS011;6087;48.982;12.064;2023-05-08T01:59:59;8.25;;;7.45;;
12052;SDS011;6087;48.982;12.064;2023-05-08T02:02:28;7.65;;;6.95;;
12052;SDS011;6087;48.982;12.064;2023-05-08T02:04:59;8.90;;;7.45;;
12052;SDS011;6087;48.982;12.064;2023-05-08T02:07:29;8.82;;;8.02;;
12052;SDS011;6087;48.982;12.064;2023-05-08T02:10:02;7.55;;;6.82;;
12052;SDS011;6087;48.982;12.064;2023-05-08T02:12:30;7.63;;;6.82;;
12052;SDS011;6087;48.982;12.064;2023-05-08T02:14:58;8.35;;;7.30;;
12052;SDS011;6087;48.982;12.064;2023-05-08T02:17:26;7.53;;;6.80;;
12052;SDS011;6087;48.982;12.064;2023-05-08T02:19:55;7.70;;;6.90;;
12052;SDS011;6087;48.982;12.064;2023-05-08T02:22:26;7.43;;;6.72;;
12052;SDS011;6087;48.982;12.064;2023-05-08T02:24:54;8.77;;;6.70;;
12052;SDS011;6087;48.982;12.064;2023-05-08T02:27:23;7.20;;;6.28;;
12052;SDS011;6087;48.982;12.064;2023-05-08T02:29:52;6.85;;;6.18;;
12052;SDS011;6087;48.982;12.064;2023-05-08T02:32:20;7.38;;;6.60;;
12052;SDS011;6087;48.982;12.064;2023-05-08T02:34:50;7.35;;;6.53;;
12052;SDS011;6087;48.982;12.064;2023-05-08T02:37:20;7.05;;;6.35;;
12052;SDS011;6087;48.982;12.064;2023-05-08T02:39:48;7.80;;;6.65;;
12052;SDS011;6087;48.982;12.064;2023-05-08T02:42:18;6.97;;;6.32;;
12052;SDS011;6087;48.982;12.064;2023-05-08T02:44:45;7.75;;;6.72;;
12052;SDS011;6087;48.982;12.064;2023-05-08T02:47:14;8.10;;;6.43;;
12052;SDS011;6087;48.982;12.064;2023-05-08T02:49:47;6.93;;;6.13;;
12052;SDS011;6087;48.982;12.064;2023-05-08T02:52:18;8.85;;;6.53;;
12052;SDS011;6087;48.982;12.064;2023-05-08T02:54:54;7.38;;;6.68;;
12052;SDS011;6087;48.982;12.064;2023-05-08T02:57:26;7.68;;;6.88;;
12052;SDS011;6087;48.982;12.064;2023-05-08T03:00:02;7.78;;;7.07;;
12052;SDS011;6087;48.982;12.064;2023-05-08T03:02:36;7.47;;;6.78;;
12052;SDS011;6087;48.982;12.064;2023-05-08T03:05:10;7.65;;;6.88;;
12052;SDS011;6087;48.982;12.064;2023-05-08T03:07:41;7.07;;;6.38;;
12052;SDS011;6087;48.982;12.064;2023-05-08T03:10:10;7.72;;;6.97;;
12052;SDS011;6087;48.982;12.064;2023-05-08T03:12:42;7.63;;;6.40;;
12052;SDS011;6087;48.982;12.064;2023-05-08T03:15:12;7.05;;;6.40;;
12052;SDS011;6087;48.982;12.064;2023-05-08T03:17:44;7.72;;;6.70;;
12052;SDS011;6087;48.982;12.064;2023-05-08T03:20:14;7.78;;;6.55;;
12052;SDS011;6087;48.982;12.064;2023-05-08T03:22:45;8.77;;;6.00;;
12052;SDS011;6087;48.982;12.064;2023-05-08T03:25:14;7.32;;;6.65;;
12052;SDS011;6087;48.982;12.064;2023-05-08T03:27:43;8.43;;;6.30;;
12052;SDS011;6087;48.982;12.064;2023-05-08T03:30:11;7.47;;;6.60;;
12052;SDS011;6087;48.982;12.064;2023-05-08T03:32:40;6.90;;;6.18;;
12052;SDS011;6087;48.982;12.064;2023-05-08T03:35:10;7.22;;;6.53;;
12052;SDS011;6087;48.982;12.064;2023-05-08T03:37:37;6.97;;;6.13;;
12052;SDS011;6087;48.982;12.064;2023-05-08T03:40:06;8.10;;;7.05;;
12052;SDS011;6087;48.982;12.064;2023-05-08T03:42:34;7.43;;;6.75;;
12052;SDS011;6087;48.982;12.064;2023-05-08T03:45:02;7.55;;;6.75;;
12052;SDS011;6087;48.982;12.064;2023-05-08T03:47:29;8.32;;;7.00;;
12052;SDS011;6087;48.982;12.064;2023-05-08T03:49:57;6.70;;;6.07;;
12052;SDS011;6087;48.982;12.064;2023-05-08T03:52:25;8.95;;;6.93;;
12052;SDS011;6087;48.982;12.064;2023-05-08T03:54:52;7.30;;;6.60;;
12052;SDS011;6087;48.982;12.064;2023-05-08T03:57:20;9.05;;;7.55;;
12052;SDS011;6087;48.982;12.064;2023-05-08T03:59:49;6.90;;;6.25;;
12052;SDS011;6087;48.982;12.064;2023-05-08T04:02:24;8.32;;;7.43;;
12052;SDS011;6087;48.982;12.064;2023-05-08T04:04:59;7.55;;;6.85;;
12052;SDS011;6087;48.982;12.064;2023-05-08T04:07:36;7.22;;;6.53;;
12052;SDS011;6087;48.982;12.064;2023-05-08T04:10:08;7.15;;;6.45;;
12052;SDS011;6087;48.982;12.064;2023-05-08T04:12:44;8.13;;;6.82;;
12052;SDS011;6087;48.982;12.064;2023-05-08T04:15:23;7.93;;;7.13;;
12052;SDS011;6087;48.982;12.064;2023-05-08T04:17:52;7.60;;;6.82;;
12052;SDS011;6087;48.982;12.064;2023-05-08T04:20:23;7.15;;;6.45;;
12052;SDS011;6087;48.982;12.064;2023-05-08T04:22:53;8.07;;;6.93;;
12052;SDS011;6087;48.982;12.064;2023-05-08T04:25:21;8.23;;;6.57;;
12052;SDS011;6087;48.982;12.064;2023-05-08T04:27:49;7.32;;;6.60;;
12052;SDS011;6087;48.982;12.064;2023-05-08T04:30:17;7.43;;;6.72;;
12052;SDS011;6087;48.982;12.064;2023-05-08T04:32:44;8.10;;;7.32;;
12052;SDS011;6087;48.982;12.064;2023-05-08T04:35:12;7.40;;;6.70;;
12052;SDS011;6087;48.982;12.064;2023-05-08T04:37:40;8.10;;;7.30;;
12052;SDS011;6087;48.982;12.064;2023-05-08T04:40:08;10.20;;;7.90;;
12052;SDS011;6087;48.982;12.064;2023-05-08T04:42:35;10.27;;;7.25;;
12052;SDS011;6087;48.982;12.064;2023-05-08T04:45:05;8.15;;;7.35;;
12052;SDS011;6087;48.982;12.064;2023-05-08T04:47:33;6.65;;;6.05;;
12052;SDS011;6087;48.982;12.064;2023-05-08T04:49:59;7.97;;;7.20;;
12052;SDS011;6087;48.982;12.064;2023-05-08T04:52:26;8.15;;;7.18;;
12052;SDS011;6087;48.982;12.064;2023-05-08T04:54:53;7.38;;;6.72;;
12052;SDS011;6087;48.982;12.064;2023-05-08T04:57:20;7.72;;;6.90;;
12052;SDS011;6087;48.982;12.064;2023-05-08T04:59:47;8.13;;;7.38;;
12052;SDS011;6087;48.982;12.064;2023-05-08T05:02:15;8.07;;;6.82;;
12052;SDS011;6087;48.982;12.064;2023-05-08T05:04:45;9.07;;;7.03;;
12052;SDS011;6087;48.982;12.064;2023-05-08T05:07:12;9.63;;;7.95;;
12052;SDS011;6087;48.982;12.064;2023-05-08T05:09:39;7.97;;;7.28;;
12052;SDS011;6087;48.982;12.064;2023-05-08T05:12:05;10.68;;;7.57;;
12052;SDS011;6087;48.982;12.064;2023-05-08T05:14:32;9.43;;;7.07;;
12052;SDS011;6087;48.982;12.064;2023-05-08T05:16:59;9.40;;;7.85;;
12052;SDS011;6087;48.982;12.064;2023-05-08T05:19:27;9.07;;;7.38;;
12052;SDS011;6087;48.982;12.064;2023-05-08T05:21:54;7.70;;;6.97;;
12052;SDS011;6087;48.982;12.064;2023-05-08T05:24:21;8.18;;;7.38;;
12052;SDS011;6087;48.982;12.064;2023-05-08T05:26:48;8.88;;;7.93;;
12052;SDS011;6087;48.982;12.064;2023-05-08T05:29:15;9.70;;;7.45;;
12052;SDS011;6087;48.982;12.064;2023-05-08T05:31:41;7.95;;;7.20;;
12052;SDS011;6087;48.982;12.064;2023-05-08T05:34:08;7.82;;;7.10;;
12052;SDS011;6087;48.982;12.064;2023-05-08T05:36:39;8.23;;;7.43;;
12052;SDS011;6087;48.982;12.064;2023-05-08T05:39:06;8.18;;;7.32;;
12052;SDS011;6087;48.982;12.064;2023-05-08T05:41:33;8.30;;;7.50;;
12052;SDS011;6087;48.982;12.064;2023-05-08T05:44:00;8.05;;;7.25;;
12052;SDS011;6087;48.982;12.064;2023-05-08T05:46:27;9.23;;;8.25;;
12052;SDS011;6087;48.982;12.064;2023-05-08T05:48:59;8.38;;;7.45;;
12052;SDS011;6087;48.982;12.064;2023-05-08T05:51:29;10.18;;;8.65;;
12052;SDS011;6087;48.982;12.064;2023-05-08T05:53:57;8.52;;;7.72;;
12052;SDS011;6087;48.982;12.064;2023-05-08T05:56:24;9.15;;;8.25;;
12052;SDS011;6087;48.982;12.064;2023-05-08T05:58:50;7.80;;;6.93;;
12052;SDS011;6087;48.982;12.064;2023-05-08T06:01:17;9.00;;;7.72;;
12052;SDS011;6087;48.982;12.064;2023-05-08T06:03:44;11.00;;;7.20;;
12052;SDS011;6087;48.982;12.064;2023-05-08T06:06:11;10.15;;;8.40;;
12052;SDS011;6087;48.982;12.064;2023-05-08T06:08:38;29.75;;;12.32;;
12052;SDS011;6087;48.982;12.064;2023-05-08T06:11:06;59.80;;;15.90;;
12052;SDS011;6087;48.982;12.064;2023-05-08T06:13:33;86.10;;;18.23;;
12052;SDS011;6087;48.982;12.064;2023-05-08T06:16:00;11.38;;;8.05;;
12052;SDS011;6087;48.982;12.064;2023-05-08T06:18:27;9.68;;;8.23;;
12052;SDS011;6087;48.982;12.064;2023-05-08T06:20:55;23.55;;;9.55;;
12052;SDS011;6087;48.982;12.064;2023-05-08T06:23:22;12.52;;;8.75;;
12052;SDS011;6087;48.982;12.064;2023-05-08T06:25:49;9.25;;;7.47;;
12052;SDS011;6087;48.982;12.064;2023-05-08T06:28:17;18.67;;;8.45;;
12052;SDS011;6087;48.982;12.064;2023-05-08T06:30:46;10.70;;;8.15;;
12052;SDS011;6087;48.982;12.064;2023-05-08T06:33:13;11.23;;;7.80;;
12052;SDS011;6087;48.982;12.064;2023-05-08T06:35:40;10.27;;;8.00;;
12052;SDS011;6087;48.982;12.064;2023-05-08T06:38:07;10.45;;;8.48;;
12052;SDS011;6087;48.982;12.064;2023-05-08T06:40:34;36.85;;;14.10;;
12052;SDS011;6087;48.982;12.064;2023-05-08T06:43:01;27.63;;;10.90;;
12052;SDS011;6087;48.982;12.064;2023-05-08T06:45:29;17.52;;;8.80;;
12052;SDS011;6087;48.982;12.064;2023-05-08T06:47:56;10.32;;;8.07;;
12052;SDS011;6087;48.982;12.064;2023-05-08T06:50:23;9.00;;;8.13;;
12052;SDS011;6087;48.982;12.064;2023-05-08T06:52:54;9.70;;;8.15;;
12052;SDS011;6087;48.982;12.064;2023-05-08T06:55:21;9.13;;;8.23;;
12052;SDS011;6087;48.982;12.064;2023-05-08T06:57:51;10.65;;;8.25;;
12052;SDS011;6087;48.982;12.064;2023-05-08T07:00:18;10.05;;;8.82;;
12052;SDS011;6087;48.982;12.064;2023-05-08T07:02:46;16.48;;;8.90;;
12052;SDS011;6087;48.982;12.064;2023-05-08T07:05:13;10.52;;;8.27;;
12052;SDS011;6087;48.982;12.064;2023-05-08T07:07:43;43.78;;;12.45;;
12052;SDS011;6087;48.982;12.064;2023-05-08T07:10:10;11.18;;;8.93;;
12052;SDS011;6087;48.982;12.064;2023-05-08T07:12:38;10.68;;;8.30;;
12052;SDS011;6087;48.982;12.064;2023-05-08T07:15:05;8.48;;;7.65;;
12052;SDS011;6087;48.982;12.064;2023-05-08T07:17:34;9.30;;;8.20;;
12052;SDS011;6087;48.982;12.064;2023-05-08T07:20:03;8.80;;;7.90;;
12052;SDS011;6087;48.982;12.064;2023-05-08T07:22:30;13.32;;;8.20;;
12052;SDS011;6087;48.982;12.064;2023-05-08T07:24:57;13.13;;;7.65;;
12052;SDS011;6087;48.982;12.064;2023-05-08T07:27:24;9.18;;;7.32;;
12052;SDS011;6087;48.982;12.064;2023-05-08T07:29:51;8.43;;;7.53;;
12052;SDS011;6087;48.982;12.064;2023-05-08T07:32:18;7.72;;;6.93;;
12052;SDS011;6087;48.982;12.064;2023-05-08T07:34:45;8.32;;;7.38;;
12052;SDS011;6087;48.982;12.064;2023-05-08T07:37:13;10.63;;;7.97;;
12052;SDS011;6087;48.982;12.064;2023-05-08T07:39:40;8.27;;;7.47;;
12052;SDS011;6087;48.982;12.064;2023-05-08T07:42:07;8.15;;;7.35;;
12052;SDS011;6087;48.982;12.064;2023-05-08T07:44:34;10.13;;;7.97;;
12052;SDS011;6087;48.982;12.064;2023-05-08T07:47:00;8.73;;;7.57;;
12052;SDS011;6087;48.982;12.064;2023-05-08T07:49:27;9.15;;;8.25;;
12052;SDS011;6087;48.982;12.064;2023-05-08T07:51:54;10.13;;;7.72;;
12052;SDS011;6087;48.982;12.064;2023-05-08T07:54:22;8.68;;;7.85;;
12052;SDS011;6087;48.982;12.064;2023-05-08T07:56:50;8.77;;;7.53;;
12052;SDS011;6087;48.982;12.064;2023-05-08T07:59:17;9.73;;;7.80;;
12052;SDS011;6087;48.982;12.064;2023-05-08T08:01:44;8.05;;;7.25;;
12052;SDS011;6087;48.982;12.064;2023-05-08T08:04:11;8.18;;;7.38;;
12052;SDS011;6087;48.982;12.064;2023-05-08T08:06:38;11.75;;;8.63;;
12052;SDS011;6087;48.982;12.064;2023-05-08T08:09:06;9.25;;;8.35;;
12052;SDS011;6087;48.982;12.064;2023-05-08T08:11:34;9.57;;;8.55;;
12052;SDS011;6087;48.982;12.064;2023-05-08T08:14:01;8.38;;;7.53;;
12052;SDS011;6087;48.982;12.064;2023-05-08T08:16:28;8.75;;;7.85;;
12052;SDS011;6087;48.982;12.064;2023-05-08T08:18:57;9.32;;;8.23;;
12052;SDS011;6087;48.982;12.064;2023-05-08T08:21:24;8.23;;;7.40;;
12052;SDS011;6087;48.982;12.064;2023-05-08T08:23:54;9.82;;;8.75;;
12052;SDS011;6087;48.982;12.064;2023-05-08T08:26:20;10.27;;;8.15;;
12052;SDS011;6087;48.982;12.064;2023-05-08T08:28:49;8.95;;;8.05;;
12052;SDS011;6087;48.982;12.064;2023-05-08T08:31:16;10.43;;;9.43;;
12052;SDS011;6087;48.982;12.064;2023-05-08T08:33:44;8.45;;;7.65;;
12052;SDS011;6087;48.982;12.064;2023-05-08T08:36:14;8.80;;;8.00;;
12052;SDS011;6087;48.982;12.064;2023-05-08T08:38:41;9.68;;;8.68;;
12052;SDS011;6087;48.982;12.064;2023-05-08T08:41:08;10.80;;;8.07;;
12052;SDS011;6087;48.982;12.064;2023-05-08T08:43:35;9.07;;;8.18;;
12052;SDS011;6087;48.982;12.064;2023-05-08T08:46:09;9.70;;;8.80;;
12052;SDS011;6087;48.982;12.064;2023-05-08T08:48:39;9.20;;;8.25;;
12052;SDS011;6087;48.982;12.064;2023-05-08T08:51:11;10.25;;;8.68;;
12052;SDS011;6087;48.982;12.064;2023-05-08T08:53:43;10.63;;;9.48;;
12052;SDS011;6087;48.982;12.064;2023-05-08T08:56:14;8.93;;;8.10;;
12052;SDS011;6087;48.982;12.064;2023-05-08T08:58:44;9.57;;;8.57;;
12052;SDS011;6087;48.982;12.064;2023-05-08T09:01:17;10.00;;;8.75;;
12052;SDS011;6087;48.982;12.064;2023-05-08T09:03:45;10.20;;;8.75;;
12052;SDS011;6087;48.982;12.064;2023-05-08T09:06:12;10.75;;;9.68;;
12052;SDS011;6087;48.982;12.064;2023-05-08T09:08:40;10.48;;;9.38;;
12052;SDS011;6087;48.982;12.064;2023-05-08T09:11:10;10.65;;;9.52;;
12052;SDS011;6087;48.982;12.064;2023-05-08T09:13:37;10.35;;;9.27;;
12052;SDS011;6087;48.982;12.064;2023-05-08T09:16:04;10.25;;;9.15;;
12052;SDS011;6087;48.982;12.064;2023-05-08T09:18:32;10.27;;;9.30;;
12052;SDS011;6087;48.982;12.064;2023-05-08T09:20:59;9.98;;;8.98;;
12052;SDS011;6087;48.982;12.064;2023-05-08T09:23:27;12.52;;;9.73;;
12052;SDS011;6087;48.982;12.064;2023-05-08T09:25:53;10.57;;;9.32;;
12052;SDS011;6087;48.982;12.064;2023-05-08T09:28:21;11.10;;;8.82;;
12052;SDS011;6087;48.982;12.064;2023-05-08T09:30:49;9.82;;;8.80;;
12052;SDS011;6087;48.982;12.064;2023-05-08T09:33:17;9.52;;;8.52;;
12052;SDS011;6087;48.982;12.064;2023-05-08T09:35:46;9.73;;;8.80;;
12052;SDS011;6087;48.982;12.064;2023-05-08T09:38:30;10.40;;;9.40;;
12052;SDS011;6087;48.982;12.064;2023-05-08T09:41:04;10.52;;;9.52;;
12052;SDS011;6087;48.982;12.064;2023-05-08T09:43:32;12.68;;;9.95;;
12052;SDS011;6087;48.982;12.064;2023-05-08T09:46:06;10.57;;;9.57;;
12052;SDS011;6087;48.982;12.064;2023-05-08T09:48:46;10.52;;;9.43;;
12052;SDS011;6087;48.982;12.064;2023-05-08T09:51:14;11.38;;;10.27;;
12052;SDS011;6087;48.982;12.064;2023-05-08T09:53:41;11.20;;;10.00;;
12052;SDS011;6087;48.982;12.064;2023-05-08T09:56:08;10.63;;;9.60;;
12052;SDS011;6087;48.982;12.064;2023-05-08T09:58:38;10.98;;;9.48;;
12052;SDS011;6087;48.982;12.064;2023-05-08T10:01:06;9.88;;;8.43;;
12052;SDS011;6087;48.982;12.064;2023-05-08T10:03:45;12.05;;;9.88;;
12052;SDS011;6087;48.982;12.064;2023-05-08T10:06:14;11.05;;;9.52;;
12052;SDS011;6087;48.982;12.064;2023-05-08T10:08:41;10.63;;;9.65;;
12052;SDS011;6087;48.982;12.064;2023-05-08T10:11:12;10.73;;;9.18;;
12052;SDS011;6087;48.982;12.064;2023-05-08T10:13:40;12.43;;;9.45;;
12052;SDS011;6087;48.982;12.064;2023-05-08T10:16:06;11.20;;;10.02;;
12052;SDS011;6087;48.982;12.064;2023-05-08T10:18:36;11.25;;;10.15;;
12052;SDS011;6087;48.982;12.064;2023-05-08T10:21:07;10.57;;;9.52;;
12052;SDS011;6087;48.982;12.064;2023-05-08T10:23:36;11.15;;;9.93;;
12052;SDS011;6087;48.982;12.064;2023-05-08T10:26:06;11.07;;;9.95;;
12052;SDS011;6087;48.982;12.064;2023-05-08T10:28:38;12.40;;;11.13;;
12052;SDS011;6087;48.982;12.064;2023-05-08T10:31:08;12.50;;;11.23;;
12052;SDS011;6087;48.982;12.064;2023-05-08T10:33:39;11.23;;;10.13;;
12052;SDS011;6087;48.982;12.064;2023-05-08T10:36:06;11.75;;;10.55;;
12052;SDS011;6087;48.982;12.064;2023-05-08T10:38:36;11.27;;;10.05;;
12052;SDS011;6087;48.982;12.064;2023-05-08T10:41:04;13.82;;;10.45;;
12052;SDS011;6087;48.982;12.064;2023-05-08T10:43:32;11.63;;;10.10;;
12052;SDS011;6087;48.982;12.064;2023-05-08T10:46:01;11.35;;;10.15;;
12052;SDS011;6087;48.982;12.064;2023-05-08T10:48:34;11.23;;;10.02;;
12052;SDS011;6087;48.982;12.064;2023-05-08T10:51:12;10.73;;;9.63;;
12052;SDS011;6087;48.982;12.064;2023-05-08T10:53:47;10.88;;;9.88;;
12052;SDS011;6087;48.982;12.064;2023-05-08T10:56:24;14.25;;;10.85;;
12052;SDS011;6087;48.982;12.064;2023-05-08T10:58:54;11.38;;;10.27;;
12052;SDS011;6087;48.982;12.064;2023-05-08T11:01:22;12.90;;;10.90;;
12052;SDS011;6087;48.982;12.064;2023-05-08T11:03:52;12.13;;;10.85;;
12052;SDS011;6087;48.982;12.064;2023-05-08T11:09:19;13.02;;;11.30;;
12052;SDS011;6087;48.982;12.064;2023-05-08T11:11:50;11.82;;;10.68;;
12052;SDS011;6087;48.982;12.064;2023-05-08T11:14:40;11.90;;;10.70;;
12052;SDS011;6087;48.982;12.064;2023-05-08T11:17:08;10.93;;;9.93;;
12052;SDS011;6087;48.982;12.064;2023-05-08T11:19:36;11.93;;;10.73;;
12052;SDS011;6087;48.982;12.064;2023-05-08T11:22:16;12.93;;;10.77;;
12052;SDS011;6087;48.982;12.064;2023-05-08T11:24:49;9.93;;;8.93;;
12052;SDS011;6087;48.982;12.064;2023-05-08T11:30:34;11.63;;;10.45;;
12052;SDS011;6087;48.982;12.064;2023-05-08T11:35:57;11.80;;;10.65;;
12052;SDS011;6087;48.982;12.064;2023-05-08T11:38:26;11.63;;;10.52;;
12052;SDS011;6087;48.982;12.064;2023-05-08T11:41:00;12.18;;;11.00;;
12052;SDS011;6087;48.982;12.064;2023-05-08T11:46:42;11.32;;;10.23;;
12052;SDS011;6087;48.982;12.064;2023-05-08T11:49:14;10.77;;;9.68;;
12052;SDS011;6087;48.982;12.064;2023-05-08T11:51:42;12.18;;;10.85;;
12052;SDS011;6087;48.982;12.064;2023-05-08T11:54:11;12.30;;;10.23;;
12052;SDS011;6087;48.982;12.064;2023-05-08T11:56:41;11.43;;;10.25;;
12052;SDS011;6087;48.982;12.064;2023-05-08T11:59:10;11.15;;;10.07;;
12052;SDS011;6087;48.982;12.064;2023-05-08T12:01:37;11.20;;;10.05;;
12052;SDS011;6087;48.982;12.064;2023-05-08T12:04:04;11.70;;;10.50;;
12052;SDS011;6087;48.982;12.064;2023-05-08T12:06:33;11.52;;;10.32;;
12052;SDS011;6087;48.982;12.064;2023-05-08T12:09:02;10.32;;;9.00;;
12052;SDS011;6087;48.982;12.064;2023-05-08T12:11:34;10.80;;;9.68;;
12052;SDS011;6087;48.982;12.064;2023-05-08T12:14:02;10.90;;;9.80;;
12052;SDS011;6087;48.982;12.064;2023-05-08T12:16:29;11.48;;;10.25;;
12052;SDS011;6087;48.982;12.064;2023-05-08T12:19:00;11.27;;;10.13;;
12052;SDS011;6087;48.982;12.064;2023-05-08T12:21:26;11.02;;;9.88;;
12052;SDS011;6087;48.982;12.064;2023-05-08T12:23:53;11.48;;;10.27;;
12052;SDS011;6087;48.982;12.064;2023-05-08T12:26:23;11.02;;;9.95;;
12052;SDS011;6087;48.982;12.064;2023-05-08T12:28:53;9.23;;;8.30;;
12052;SDS011;6087;48.982;12.064;2023-05-08T12:31:22;9.73;;;7.80;;
12052;SDS011;6087;48.982;12.064;2023-05-08T12:33:49;11.13;;;9.82;;
12052;SDS011;6087;48.982;12.064;2023-05-08T12:36:16;9.77;;;8.70;;
12052;SDS011;6087;48.982;12.064;2023-05-08T12:38:43;10.23;;;9.23;;
12052;SDS011;6087;48.982;12.064;2023-05-08T12:41:10;10.23;;;7.95;;
12052;SDS011;6087;48.982;12.064;2023-05-08T12:43:37;10.55;;;7.72;;
12052;SDS011;6087;48.982;12.064;2023-05-08T12:46:04;10.40;;;9.40;;
12052;SDS011;6087;48.982;12.064;2023-05-08T12:48:32;9.10;;;8.20;;
12052;SDS011;6087;48.982;12.064;2023-05-08T12:51:02;8.55;;;7.82;;
12052;SDS011;6087;48.982;12.064;2023-05-08T12:53:31;8.75;;;7.85;;
12052;SDS011;6087;48.982;12.064;2023-05-08T12:56:00;9.35;;;8.55;;
12052;SDS011;6087;48.982;12.064;2023-05-08T12:58:29;7.97;;;7.28;;
12052;SDS011;6087;48.982;12.064;2023-05-08T13:01:03;8.65;;;7.85;;
12052;SDS011;6087;48.982;12.064;2023-05-08T13:03:32;8.18;;;7.47;;
12052;SDS011;6087;48.982;12.064;2023-05-08T13:05:59;11.02;;;7.15;;
12052;SDS011;6087;48.982;12.064;2023-05-08T13:08:29;8.93;;;6.93;;
12052;SDS011;6087;48.982;12.064;2023-05-08T13:10:57;8.68;;;7.72;;
12052;SDS011;6087;48.982;12.064;2023-05-08T13:13:25;7.97;;;7.18;;
12052;SDS011;6087;48.982;12.064;2023-05-08T13:15:53;8.32;;;7.53;;
12052;SDS011;6087;48.982;12.064;2023-05-08T13:18:24;7.30;;;6.60;;
12052;SDS011;6087;48.982;12.064;2023-05-08T13:20:53;8.13;;;7.32;;
12052;SDS011;6087;48.982;12.064;2023-05-08T13:23:26;9.10;;;7.15;;
12052;SDS011;6087;48.982;12.064;2023-05-08T13:25:53;7.70;;;6.80;;
12052;SDS011;6087;48.982;12.064;2023-05-08T13:28:20;7.85;;;7.07;;
12052;SDS011;6087;48.982;12.064;2023-05-08T13:30:47;8.13;;;7.07;;
12052;SDS011;6087;48.982;12.064;2023-05-08T13:33:14;8.70;;;7.90;;
12052;SDS011;6087;48.982;12.064;2023-05-08T13:35:41;10.43;;;8.48;;
12052;SDS011;6087;48.982;12.064;2023-05-08T13:38:12;8.30;;;7.50;;
12052;SDS011;6087;48.982;12.064;2023-05-08T13:40:39;8.57;;;7.78;;
12052;SDS011;6087;48.982;12.064;2023-05-08T13:43:05;11.77;;;8.40;;
12052;SDS011;6087;48.982;12.064;2023-05-08T13:45:43;8.75;;;7.95;;
12052;SDS011;6087;48.982;12.064;2023-05-08T13:48:09;10.48;;;8.00;;
12052;SDS011;6087;48.982;12.064;2023-05-08T13:50:36;12.63;;;8.48;;
12052;SDS011;6087;48.982;12.064;2023-05-08T13:53:05;8.55;;;7.75;;
12052;SDS011;6087;48.982;12.064;2023-05-08T13:55:34;6.50;;;5.90;;
12052;SDS011;6087;48.982;12.064;2023-05-08T13:58:06;6.28;;;5.65;;
12052;SDS011;6087;48.982;12.064;2023-05-08T14:00:33;5.88;;;5.35;;
12052;SDS011;6087;48.982;12.064;2023-05-08T14:02:59;5.18;;;4.63;;
12052;SDS011;6087;48.982;12.064;2023-05-08T14:05:26;5.35;;;4.85;;
12052;SDS011;6087;48.982;12.064;2023-05-08T14:07:53;5.82;;;5.32;;
12052;SDS011;6087;48.982;12.064;2023-05-08T14:10:20;5.60;;;5.10;;
12052;SDS011;6087;48.982;12.064;2023-05-08T14:12:49;6.03;;;5.40;;
12052;SDS011;6087;48.982;12.064;2023-05-08T14:15:15;5.18;;;4.68;;
12052;SDS011;6087;48.982;12.064;2023-05-08T14:17:42;5.50;;;5.00;;
12052;SDS011;6087;48.982;12.064;2023-05-08T14:20:09;6.75;;;5.97;;
12052;SDS011;6087;48.982;12.064;2023-05-08T14:22:37;5.90;;;5.40;;
12052;SDS011;6087;48.982;12.064;2023-05-08T14:25:07;6.63;;;5.53;;
12052;SDS011;6087;48.982;12.064;2023-05-08T14:27:35;8.30;;;5.32;;
12052;SDS011;6087;48.982;12.064;2023-05-08T14:30:03;5.85;;;5.35;;
12052;SDS011;6087;48.982;12.064;2023-05-08T14:32:31;5.50;;;5.00;;
12052;SDS011;6087;48.982;12.064;2023-05-08T14:34:58;6.07;;;5.53;;
12052;SDS011;6087;48.982;12.064;2023-05-08T14:37:25;5.80;;;5.25;;
12052;SDS011;6087;48.982;12.064;2023-05-08T14:39:52;5.93;;;5.05;;
12052;SDS011;6087;48.982;12.064;2023-05-08T14:42:20;5.43;;;5.03;;
12052;SDS011;6087;48.982;12.064;2023-05-08T14:44:46;5.40;;;4.90;;
12052;SDS011;6087;48.982;12.064;2023-05-08T14:47:15;5.82;;;4.97;;
12052;SDS011;6087;48.982;12.064;2023-05-08T14:49:42;5.63;;;4.57;;
12052;SDS011;6087;48.982;12.064;2023-05-08T14:52:09;6.38;;;4.90;;
12052;SDS011;6087;48.982;12.064;2023-05-08T14:54:35;5.00;;;4.55;;
12052;SDS011;6087;48.982;12.064;2023-05-08T14:57:02;5.13;;;4.70;;
12052;SDS011;6087;48.982;12.064;2023-05-08T14:59:29;5.93;;;5.20;;
12052;SDS011;6087;48.982;12.064;2023-05-08T15:01:59;5.50;;;5.00;;
12052;SDS011;6087;48.982;12.064;2023-05-08T15:04:30;5.45;;;4.97;;